createdAt,value
2019-05-05T00:00:49.801Z,5.60
2019-05-05T00:03:24.994Z,5.60
2019-05-05T00:05:51.908Z,5.60
2019-05-05T00:08:19.635Z,5.60
2019-05-05T00:10:58.383Z,5.50
2019-05-05T00:13:35.455Z,5.50
2019-05-05T00:16:15.851Z,5.50
2019-05-05T00:18:42.480Z,5.50
2019-05-05T00:21:09.883Z,5.40
2019-05-05T00:23:36.503Z,5.40
2019-05-05T00:26:04.423Z,5.30
2019-05-05T00:28:31.219Z,5.30
2019-05-05T00:30:57.877Z,5.30
2019-05-05T00:33:25.010Z,5.20
2019-05-05T00:35:51.905Z,5.20
2019-05-05T00:38:18.545Z,5.10
2019-05-05T00:40:45.468Z,5.10
2019-05-05T00:43:12.151Z,5.00
2019-05-05T00:45:40.071Z,5.00
2019-05-05T00:48:14.744Z,5.00
2019-05-05T00:50:41.637Z,5.00
2019-05-05T00:53:08.489Z,5.10
2019-05-05T00:55:35.118Z,5.20
2019-05-05T00:58:01.835Z,5.20
2019-05-05T01:00:45.748Z,5.10
2019-05-05T01:03:15.127Z,5.10
2019-05-05T01:05:50.504Z,5.00
2019-05-05T01:08:19.779Z,4.90
2019-05-05T01:10:46.634Z,4.90
2019-05-05T01:13:15.185Z,4.80
2019-05-05T01:15:41.964Z,4.80
2019-05-05T01:18:08.693Z,4.80
2019-05-05T01:20:35.656Z,4.80
2019-05-05T01:23:04.295Z,4.70
2019-05-05T01:25:30.955Z,4.70
2019-05-05T01:27:57.592Z,4.70
2019-05-05T01:30:28.519Z,4.70
2019-05-05T01:33:00.517Z,4.70
2019-05-05T01:35:27.108Z,4.60
2019-05-05T01:38:02.158Z,4.60
2019-05-05T01:40:48.503Z,4.50
2019-05-05T01:43:15.237Z,4.50
2019-05-05T01:45:41.927Z,4.50
2019-05-05T01:48:08.531Z,4.40
2019-05-05T01:50:35.269Z,4.40
2019-05-05T01:53:01.934Z,4.40
2019-05-05T01:55:28.673Z,4.40
2019-05-05T01:57:55.578Z,4.30
2019-05-05T02:00:22.201Z,4.30
2019-05-05T02:02:48.895Z,4.20
2019-05-05T02:05:15.585Z,4.10
2019-05-05T02:07:44.273Z,4.20
2019-05-05T02:10:11.736Z,4.20
2019-05-05T02:12:38.444Z,4.20
2019-05-05T02:15:05.889Z,4.20
2019-05-05T02:17:52.247Z,4.10
2019-05-05T02:20:39.290Z,4.10
2019-05-05T02:23:05.996Z,4.10
2019-05-05T02:25:34.432Z,4.20
2019-05-05T02:28:01.331Z,4.20
2019-05-05T02:30:38.769Z,4.20
2019-05-05T02:33:08.864Z,4.10
2019-05-05T02:35:35.447Z,4.10
2019-05-05T02:38:02.164Z,4.10
2019-05-05T02:40:29.407Z,4.00
2019-05-05T02:42:56.214Z,4.00
2019-05-05T02:45:44.180Z,3.90
2019-05-05T02:48:15.324Z,3.90
2019-05-05T02:51:00.156Z,3.90
2019-05-05T02:53:24.743Z,3.90
2019-05-05T02:55:54.733Z,3.90
2019-05-05T02:58:24.378Z,3.90
2019-05-05T03:01:14.229Z,4.00
2019-05-05T03:03:41.382Z,3.90
2019-05-05T03:06:09.050Z,3.90
2019-05-05T03:08:38.921Z,3.70
2019-05-05T03:11:05.954Z,3.60
2019-05-05T03:13:34.831Z,3.50
2019-05-05T03:16:16.153Z,3.40
2019-05-05T03:18:43.976Z,3.40
2019-05-05T03:21:11.120Z,3.30
2019-05-05T03:23:38.356Z,3.30
2019-05-05T03:26:05.797Z,3.30
2019-05-05T03:28:43.847Z,3.20
2019-05-05T03:31:15.126Z,3.20
2019-05-05T03:33:40.745Z,3.30
2019-05-05T03:36:13.845Z,3.30
2019-05-05T03:38:41.177Z,3.20
2019-05-05T03:41:13.580Z,3.20
2019-05-05T03:44:01.284Z,3.30
2019-05-05T03:46:28.325Z,3.30
2019-05-05T03:48:54.904Z,3.30
2019-05-05T03:51:24.232Z,3.30
2019-05-05T03:53:50.761Z,3.30
2019-05-05T03:56:17.549Z,3.20
2019-05-05T03:58:44.842Z,3.20
2019-05-05T04:01:49.623Z,3.20
2019-05-05T04:04:26.263Z,3.30
2019-05-05T04:06:54.053Z,3.30
2019-05-05T04:09:21.135Z,3.30
2019-05-05T04:11:47.874Z,3.40
2019-05-05T04:14:14.784Z,3.50
2019-05-05T04:17:03.826Z,3.50
2019-05-05T04:19:31.562Z,3.50
2019-05-05T04:21:58.243Z,3.50
2019-05-05T04:24:24.856Z,3.50
2019-05-05T04:26:51.568Z,3.60
2019-05-05T04:29:18.201Z,3.60
2019-05-05T04:31:44.887Z,3.70
2019-05-05T04:34:13.406Z,3.70
2019-05-05T04:36:40.004Z,3.70
2019-05-05T04:39:06.789Z,3.80
2019-05-05T04:41:33.887Z,3.80
2019-05-05T04:44:03.893Z,3.90
2019-05-05T04:46:30.253Z,4.00
2019-05-05T04:49:03.858Z,4.00
2019-05-05T04:51:47.698Z,4.10
2019-05-05T04:54:33.521Z,4.10
2019-05-05T04:57:00.252Z,4.20
2019-05-05T04:59:26.935Z,4.30
2019-05-05T05:01:56.639Z,4.50
2019-05-05T05:04:30.912Z,5.00
2019-05-05T05:06:58.152Z,6.00
2019-05-05T05:09:24.970Z,7.00
2019-05-05T05:11:51.616Z,7.70
2019-05-05T05:14:18.380Z,8.30
2019-05-05T05:16:45.996Z,8.40
2019-05-05T05:19:13.793Z,8.60
2019-05-05T05:21:40.978Z,8.60
2019-05-05T05:24:07.680Z,8.50
2019-05-05T05:26:34.305Z,7.60
2019-05-05T05:29:02.021Z,7.10
2019-05-05T05:31:28.723Z,7.00
2019-05-05T05:33:55.444Z,7.00
2019-05-05T05:36:22.077Z,6.90
2019-05-05T05:38:51.206Z,6.90
2019-05-05T05:41:37.517Z,6.80
2019-05-05T05:44:15.508Z,6.70
2019-05-05T05:46:49.247Z,6.70
2019-05-05T05:49:26.927Z,6.80
2019-05-05T05:51:53.918Z,7.00
2019-05-05T05:54:20.511Z,7.10
2019-05-05T05:56:47.344Z,7.10
2019-05-05T05:59:14.167Z,7.10
2019-05-05T06:01:40.867Z,7.30
2019-05-05T06:04:07.497Z,7.50
2019-05-05T06:06:34.640Z,7.70
2019-05-05T06:09:01.412Z,7.90
2019-05-05T06:11:28.041Z,8.20
2019-05-05T06:13:54.669Z,8.30
2019-05-05T06:16:23.462Z,8.60
2019-05-05T06:18:50.203Z,9.00
2019-05-05T06:21:17.095Z,9.70
2019-05-05T06:23:43.901Z,10.50
2019-05-05T06:26:10.640Z,11.50
2019-05-05T06:28:37.292Z,12.20
2019-05-05T06:31:04.816Z,12.70
2019-05-05T06:33:31.987Z,13.00
2019-05-05T06:35:58.588Z,13.00
2019-05-05T06:38:26.209Z,13.40
2019-05-05T06:41:04.202Z,14.00
2019-05-05T06:43:40.264Z,14.00
2019-05-05T06:46:08.256Z,14.30
2019-05-05T06:48:34.881Z,14.10
2019-05-05T06:51:03.823Z,14.50
2019-05-05T06:53:30.096Z,15.00
2019-05-05T06:55:56.775Z,15.40
2019-05-05T06:58:24.169Z,15.30
2019-05-05T07:00:51.024Z,15.50
2019-05-05T07:03:17.664Z,15.60
2019-05-05T07:05:44.296Z,16.20
2019-05-05T07:08:10.995Z,16.20
2019-05-05T07:10:37.611Z,16.50
2019-05-05T07:13:04.986Z,16.10
2019-05-05T07:15:31.820Z,16.10
2019-05-05T07:17:58.431Z,16.70
2019-05-05T07:20:25.053Z,17.30
2019-05-05T07:23:01.348Z,17.50
2019-05-05T07:25:20.317Z,17.90
2019-05-05T07:27:46.959Z,17.80
2019-05-05T07:30:14.004Z,17.50
2019-05-05T07:32:40.833Z,17.30
2019-05-05T07:35:26.349Z,17.80
2019-05-05T07:37:53.860Z,18.20
2019-05-05T07:40:20.937Z,18.10
2019-05-05T07:42:47.564Z,18.10
2019-05-05T07:45:22.615Z,18.30
2019-05-05T07:47:43.728Z,17.40
2019-05-05T07:50:24.905Z,17.50
2019-05-05T07:52:39.345Z,17.60
2019-05-05T07:55:06.413Z,17.90
2019-05-05T07:57:34.157Z,17.30
2019-05-05T08:00:01.286Z,17.30
2019-05-05T08:02:28.241Z,18.00
2019-05-05T08:04:54.921Z,18.70
2019-05-05T08:07:21.560Z,18.80
2019-05-05T08:09:48.163Z,18.40
2019-05-05T08:12:15.016Z,17.70
2019-05-05T08:14:41.676Z,18.10
2019-05-05T08:17:35.058Z,18.60
2019-05-05T08:20:08.331Z,18.80
2019-05-05T08:22:35.072Z,19.70
2019-05-05T08:25:34.461Z,18.90
2019-05-05T08:27:59.972Z,18.00
2019-05-05T08:30:44.925Z,17.80
2019-05-05T08:33:13.929Z,18.80
2019-05-05T08:35:40.224Z,19.50
2019-05-05T08:38:06.868Z,19.00
2019-05-05T08:40:34.578Z,19.40
2019-05-05T08:43:01.525Z,19.50
2019-05-05T08:45:28.237Z,19.50
2019-05-05T08:47:55.346Z,19.80
2019-05-05T08:50:24.794Z,18.40
2019-05-05T08:52:50.652Z,17.90
2019-05-05T08:55:17.564Z,17.70
2019-05-05T08:57:44.723Z,18.30
2019-05-05T09:00:13.840Z,19.20
2019-05-05T09:02:40.635Z,19.90
2019-05-05T09:05:07.536Z,19.10
2019-05-05T09:07:34.167Z,19.40
2019-05-05T09:10:01.199Z,19.60
2019-05-05T09:12:27.963Z,19.90
2019-05-05T09:14:55.742Z,19.10
2019-05-05T09:17:24.390Z,18.60
2019-05-05T09:19:50.996Z,18.70
2019-05-05T09:22:17.758Z,19.50
2019-05-05T09:24:53.654Z,20.30
2019-05-05T09:27:30.631Z,20.40
2019-05-05T09:29:57.247Z,19.10
2019-05-05T09:32:24.344Z,19.30
2019-05-05T09:34:51.223Z,20.10
2019-05-05T09:37:18.254Z,21.50
2019-05-05T09:39:44.899Z,21.10
2019-05-05T09:42:14.301Z,20.70
2019-05-05T09:44:40.940Z,20.80
2019-05-05T09:47:07.687Z,20.50
2019-05-05T09:49:34.399Z,20.60
2019-05-05T09:52:01.093Z,21.00
2019-05-05T09:54:28.099Z,20.20
2019-05-05T09:56:54.743Z,18.50
2019-05-05T09:59:23.854Z,17.10
2019-05-05T10:01:50.305Z,16.30
2019-05-05T10:04:17.278Z,16.30
2019-05-05T10:06:47.730Z,17.60
2019-05-05T10:09:13.741Z,18.00
2019-05-05T10:11:41.089Z,17.90
2019-05-05T10:14:10.280Z,17.10
2019-05-05T10:16:36.996Z,16.50
2019-05-05T10:19:04.560Z,16.10
2019-05-05T10:21:33.781Z,15.80
2019-05-05T10:24:04.550Z,15.80
2019-05-05T10:26:31.609Z,15.70
2019-05-05T10:29:01.212Z,15.40
2019-05-05T10:31:28.411Z,15.00
2019-05-05T10:33:59.263Z,14.70
2019-05-05T10:36:26.195Z,14.80
2019-05-05T10:38:58.308Z,16.10
2019-05-05T10:41:25.249Z,17.70
2019-05-05T10:43:54.042Z,18.70
2019-05-05T10:46:20.706Z,18.60
2019-05-05T10:48:47.374Z,17.50
2019-05-05T10:51:14.011Z,16.90
2019-05-05T10:53:40.744Z,16.40
2019-05-05T10:56:07.470Z,16.00
2019-05-05T10:58:34.209Z,15.60
2019-05-05T11:01:01.482Z,15.50
2019-05-05T11:03:28.620Z,15.70
2019-05-05T11:05:55.501Z,16.00
2019-05-05T11:08:24.030Z,15.70
2019-05-05T11:10:51.042Z,15.60
2019-05-05T11:13:17.804Z,15.40
2019-05-05T11:15:45.398Z,15.20
2019-05-05T11:18:14.418Z,14.80
2019-05-05T11:20:40.889Z,15.00
2019-05-05T11:23:07.542Z,16.60
2019-05-05T11:25:34.365Z,18.10
2019-05-05T11:28:03.435Z,19.80
2019-05-05T11:30:34.003Z,20.70
2019-05-05T11:33:34.416Z,21.60
2019-05-05T11:36:19.296Z,22.00
2019-05-05T11:38:45.950Z,22.90
2019-05-05T11:41:14.441Z,21.10
2019-05-05T11:43:41.220Z,19.40
2019-05-05T11:46:08.121Z,18.40
2019-05-05T11:48:34.731Z,17.60
2019-05-05T11:51:01.371Z,16.40
2019-05-05T11:53:28.072Z,15.60
2019-05-05T11:55:55.198Z,15.40
2019-05-05T11:58:22.083Z,15.10
2019-05-05T12:00:48.794Z,15.20
2019-05-05T12:03:15.516Z,15.20
2019-05-05T12:05:44.098Z,15.10
2019-05-05T12:08:10.673Z,15.10
2019-05-05T12:11:04.619Z,15.30
2019-05-05T12:13:31.564Z,15.60
2019-05-05T12:15:59.901Z,16.60
2019-05-05T12:18:27.360Z,16.70
2019-05-05T12:20:54.480Z,17.60
2019-05-05T12:23:21.285Z,18.00
2019-05-05T12:26:25.720Z,17.10
2019-05-05T12:28:57.746Z,16.40
2019-05-05T12:31:26.520Z,15.60
2019-05-05T12:33:54.751Z,15.30
2019-05-05T12:36:23.690Z,15.30
2019-05-05T12:38:50.683Z,15.50
2019-05-05T12:41:17.493Z,15.70
2019-05-05T12:43:44.392Z,16.10
2019-05-05T12:46:21.357Z,16.70
2019-05-05T12:48:48.552Z,17.10
2019-05-05T12:51:15.290Z,17.90
2019-05-05T12:53:41.965Z,18.40
2019-05-05T12:56:08.936Z,18.80
2019-05-05T12:58:35.587Z,18.50
2019-05-05T13:01:08.996Z,17.80
2019-05-05T13:03:35.944Z,17.60
2019-05-05T13:06:04.111Z,17.10
2019-05-05T13:08:30.837Z,16.70
2019-05-05T13:10:59.394Z,16.50
2019-05-05T13:13:26.145Z,16.30
2019-05-05T13:16:01.174Z,16.40
2019-05-05T13:18:28.263Z,16.10
2019-05-05T13:21:19.166Z,15.80
2019-05-05T13:23:54.789Z,15.20
2019-05-05T13:26:28.237Z,15.50
2019-05-05T13:28:55.123Z,15.90
2019-05-05T13:31:22.168Z,16.90
2019-05-05T13:33:49.222Z,17.90
2019-05-05T13:36:15.945Z,19.10
2019-05-05T13:38:43.831Z,20.20
2019-05-05T13:41:10.990Z,20.60
2019-05-05T13:43:37.988Z,21.10
2019-05-05T13:46:14.007Z,21.50
2019-05-05T13:48:40.878Z,21.40
2019-05-05T13:51:07.889Z,21.00
2019-05-05T13:53:34.642Z,21.10
2019-05-05T13:56:11.286Z,21.90
2019-05-05T13:58:29.903Z,22.00
2019-05-05T14:00:56.566Z,21.30
2019-05-05T14:03:23.549Z,21.50
2019-05-05T14:05:50.331Z,21.50
2019-05-05T14:08:17.270Z,22.10
2019-05-05T14:10:44.007Z,21.10
2019-05-05T14:13:10.736Z,19.80
2019-05-05T14:15:37.363Z,17.70
2019-05-05T14:18:04.082Z,16.90
2019-05-05T14:20:30.726Z,16.40
2019-05-05T14:22:57.835Z,15.80
2019-05-05T14:25:27.124Z,15.60
2019-05-05T14:27:54.165Z,15.60
2019-05-05T14:30:40.979Z,15.70
2019-05-05T14:33:11.878Z,15.60
2019-05-05T14:36:00.741Z,15.50
2019-05-05T14:38:49.582Z,15.40
2019-05-05T14:41:16.391Z,15.30
2019-05-05T14:43:43.852Z,15.20
2019-05-05T14:46:10.555Z,15.00
2019-05-05T14:48:37.557Z,15.00
2019-05-05T14:51:04.368Z,14.60
2019-05-05T14:53:31.021Z,14.50
2019-05-05T14:55:57.753Z,14.50
2019-05-05T14:58:24.432Z,14.60
2019-05-05T15:00:51.172Z,14.60
2019-05-05T15:03:17.849Z,14.60
2019-05-05T15:05:54.789Z,14.50
2019-05-05T15:08:33.921Z,14.40
2019-05-05T15:11:06.103Z,14.40
2019-05-05T15:13:33.605Z,14.10
2019-05-05T15:16:03.846Z,13.90
2019-05-05T15:18:30.169Z,13.90
2019-05-05T15:20:56.833Z,13.90
2019-05-05T15:23:24.000Z,13.80
2019-05-05T15:25:50.908Z,14.00
2019-05-05T15:28:17.556Z,14.00
2019-05-05T15:30:44.278Z,14.00
2019-05-05T15:33:10.970Z,14.00
2019-05-05T15:35:37.562Z,13.80
2019-05-05T15:38:04.551Z,13.70
2019-05-05T15:40:31.328Z,13.60
2019-05-05T15:42:58.061Z,13.60
2019-05-05T15:45:24.979Z,13.70
2019-05-05T15:47:54.021Z,13.60
2019-05-05T15:50:20.845Z,13.80
2019-05-05T15:52:47.471Z,13.70
2019-05-05T15:55:14.522Z,13.30
2019-05-05T15:57:41.191Z,13.30
2019-05-05T16:00:09.135Z,13.20
2019-05-05T16:02:36.193Z,13.20
2019-05-05T16:05:04.534Z,13.30
2019-05-05T16:07:33.282Z,13.20
2019-05-05T16:09:59.808Z,13.20
2019-05-05T16:12:34.213Z,13.10
2019-05-05T16:15:13.807Z,13.10
2019-05-05T16:17:46.206Z,12.90
2019-05-05T16:20:25.450Z,12.80
2019-05-05T16:23:10.842Z,12.70
2019-05-05T16:25:38.287Z,12.80
2019-05-05T16:28:05.583Z,12.80
2019-05-05T16:30:33.848Z,12.80
2019-05-05T16:33:00.723Z,12.90
2019-05-05T16:35:27.485Z,13.10
2019-05-05T16:37:54.110Z,13.40
2019-05-05T16:40:23.248Z,13.50
2019-05-05T16:42:49.471Z,13.30
2019-05-05T16:45:16.766Z,13.20
2019-05-05T16:47:44.320Z,13.10
2019-05-05T16:50:11.331Z,13.10
2019-05-05T16:52:43.453Z,13.10
2019-05-05T16:55:23.763Z,13.10
2019-05-05T16:57:50.519Z,13.20
2019-05-05T17:00:17.695Z,13.20
2019-05-05T17:02:44.528Z,13.20
2019-05-05T17:05:13.702Z,13.00
2019-05-05T17:07:40.506Z,12.80
2019-05-05T17:10:07.421Z,12.70
2019-05-05T17:12:34.311Z,12.80
2019-05-05T17:15:19.768Z,12.90
2019-05-05T17:17:55.141Z,12.90
2019-05-05T17:20:24.560Z,12.80
2019-05-05T17:22:57.453Z,12.70
2019-05-05T17:25:24.704Z,12.70
2019-05-05T17:27:51.721Z,12.70
2019-05-05T17:30:19.137Z,12.60
2019-05-05T17:32:45.731Z,12.40
2019-05-05T17:35:14.360Z,12.30
2019-05-05T17:37:41.088Z,12.00
2019-05-05T17:40:15.945Z,12.00
2019-05-05T17:42:51.035Z,11.70
2019-05-05T17:45:27.802Z,11.60
2019-05-05T17:48:01.392Z,11.50
2019-05-05T17:50:46.347Z,11.30
2019-05-05T17:53:30.635Z,11.20
2019-05-05T17:55:57.786Z,11.10
2019-05-05T17:58:26.190Z,11.00
2019-05-05T18:00:56.533Z,10.90
2019-05-05T18:03:23.241Z,10.80
2019-05-05T18:06:07.571Z,10.70
2019-05-05T18:08:40.901Z,10.70
2019-05-05T18:11:18.569Z,10.60
2019-05-05T18:13:49.309Z,10.50
2019-05-05T18:16:17.043Z,10.50
2019-05-05T18:18:44.463Z,10.40
2019-05-05T18:21:11.296Z,10.20
2019-05-05T18:23:37.965Z,10.20
2019-05-05T18:26:04.984Z,10.10
2019-05-05T18:28:31.575Z,10.00
2019-05-05T18:30:58.196Z,10.00
2019-05-05T18:33:24.782Z,10.00
2019-05-05T18:35:53.906Z,10.00
2019-05-05T18:38:20.579Z,10.00
2019-05-05T18:40:47.932Z,9.90
2019-05-05T18:43:24.351Z,9.90
2019-05-05T18:46:00.655Z,9.80
2019-05-05T18:48:27.255Z,9.80
2019-05-05T18:50:54.217Z,9.80
2019-05-05T18:53:20.980Z,9.80
2019-05-05T18:55:47.764Z,9.70
2019-05-05T18:58:26.963Z,9.80
2019-05-05T19:00:51.748Z,9.70
2019-05-05T19:03:24.925Z,9.70
2019-05-05T19:05:59.112Z,9.70
2019-05-05T19:08:29.020Z,9.80
2019-05-05T19:10:55.813Z,9.70
2019-05-05T19:13:24.261Z,9.70
2019-05-05T19:15:51.436Z,9.70
2019-05-05T19:18:18.079Z,9.70
2019-05-05T19:20:54.179Z,9.70
2019-05-05T19:23:21.049Z,9.80
2019-05-05T19:25:47.664Z,9.70
2019-05-05T19:28:14.379Z,9.70
2019-05-05T19:30:41.004Z,9.80
2019-05-05T19:33:07.625Z,9.70
2019-05-05T19:35:41.930Z,9.80
2019-05-05T19:38:04.904Z,9.70
2019-05-05T19:40:33.807Z,9.60
2019-05-05T19:43:00.349Z,9.60
2019-05-05T19:45:27.040Z,9.50
2019-05-05T19:47:53.667Z,9.50
2019-05-05T19:50:33.853Z,9.40
2019-05-05T19:53:00.499Z,9.40
2019-05-05T19:55:27.107Z,9.20
2019-05-05T19:57:54.116Z,9.10
2019-05-05T20:00:23.405Z,9.10
2019-05-05T20:03:01.319Z,8.90
2019-05-05T20:05:18.656Z,8.90
2019-05-05T20:07:45.239Z,8.90
2019-05-05T20:10:14.542Z,8.80
2019-05-05T20:12:43.831Z,8.80
2019-05-05T20:15:14.734Z,8.70
2019-05-05T20:17:41.494Z,8.60
2019-05-05T20:20:08.541Z,8.50
2019-05-05T20:22:35.228Z,8.40
2019-05-05T20:25:04.258Z,8.40
2019-05-05T20:27:30.999Z,8.40
2019-05-05T20:29:57.710Z,8.30
2019-05-05T20:32:30.941Z,8.30
2019-05-05T20:35:16.072Z,8.30
2019-05-05T20:37:46.425Z,8.30
2019-05-05T20:40:15.111Z,8.20
2019-05-05T20:42:41.857Z,8.20
2019-05-05T20:45:30.083Z,8.20
2019-05-05T20:47:56.914Z,8.10
2019-05-05T20:50:24.727Z,8.10
2019-05-05T20:52:53.577Z,8.00
2019-05-05T20:55:22.054Z,8.00
2019-05-05T20:57:48.967Z,8.00
2019-05-05T21:00:17.535Z,8.00
2019-05-05T21:02:44.270Z,7.90
2019-05-05T21:05:12.048Z,8.00
2019-05-05T21:07:38.668Z,8.00
2019-05-05T21:10:05.512Z,7.90
2019-05-05T21:12:41.749Z,7.90
2019-05-05T21:15:00.661Z,8.00
2019-05-05T21:17:27.346Z,8.00
2019-05-05T21:19:54.092Z,7.90
2019-05-05T21:22:33.991Z,8.00
2019-05-05T21:25:00.815Z,8.00
2019-05-05T21:27:27.767Z,8.00
2019-05-05T21:30:04.048Z,8.10
2019-05-05T21:32:31.423Z,8.00
2019-05-05T21:34:58.440Z,8.10
2019-05-05T21:37:25.215Z,8.10
2019-05-05T21:39:52.384Z,8.20
2019-05-05T21:42:19.242Z,8.30
2019-05-05T21:44:45.877Z,8.30
2019-05-05T21:47:14.149Z,8.40
2019-05-05T21:49:41.027Z,8.40
2019-05-05T21:52:23.927Z,8.50
2019-05-05T21:55:01.108Z,8.50
2019-05-05T21:57:53.383Z,8.50
2019-05-05T22:00:38.724Z,8.40
2019-05-05T22:03:05.660Z,8.40
2019-05-05T22:05:33.516Z,8.30
2019-05-05T22:08:00.305Z,8.20
2019-05-05T22:10:27.008Z,8.10
2019-05-05T22:12:54.199Z,8.00
2019-05-05T22:15:20.957Z,7.90
2019-05-05T22:17:47.592Z,7.80
2019-05-05T22:20:21.006Z,7.60
2019-05-05T22:22:48.423Z,7.60
2019-05-05T22:25:15.153Z,7.50
2019-05-05T22:27:43.995Z,7.50
2019-05-05T22:30:10.688Z,7.40
2019-05-05T22:32:37.448Z,7.40
2019-05-05T22:35:04.341Z,7.30
2019-05-05T22:37:31.181Z,7.30
2019-05-05T22:39:57.775Z,7.40
2019-05-05T22:42:24.704Z,7.30
2019-05-05T22:44:51.375Z,7.30
2019-05-05T22:47:18.375Z,7.30
2019-05-05T22:49:44.993Z,7.40
2019-05-05T22:52:11.716Z,7.40
2019-05-05T22:54:38.343Z,7.40
2019-05-05T22:57:04.974Z,7.30
2019-05-05T22:59:31.788Z,7.30
2019-05-05T23:01:58.832Z,7.40
2019-05-05T23:04:35.093Z,7.30
2019-05-05T23:07:05.832Z,7.40
2019-05-05T23:09:32.611Z,7.30
2019-05-05T23:11:59.208Z,7.30
2019-05-05T23:14:28.960Z,7.30
2019-05-05T23:17:04.711Z,7.20
2019-05-05T23:19:37.105Z,7.20
2019-05-05T23:22:15.741Z,7.30
2019-05-05T23:24:47.892Z,7.30
2019-05-05T23:27:34.323Z,7.30
2019-05-05T23:30:01.488Z,7.20
2019-05-05T23:32:28.120Z,7.20
2019-05-05T23:34:54.786Z,7.10
2019-05-05T23:37:21.443Z,7.10
2019-05-05T23:39:48.096Z,7.10
2019-05-05T23:42:15.224Z,7.10
2019-05-05T23:44:41.908Z,7.10
2019-05-05T23:47:08.524Z,7.10
2019-05-05T23:49:35.304Z,7.10
2019-05-05T23:52:04.308Z,7.00
2019-05-05T23:54:30.856Z,7.00
2019-05-05T23:56:57.439Z,6.90
2019-05-05T23:59:24.317Z,6.90
